sensor_id;sensor_type;location;lat;lon;timestamp;P1;durP1;ratioP1;P2;durP2;ratioP2
50128;SDS011;36026;45.478;9.224;2023-04-01T00:02:41;5.97;;;4.20;;
50128;SDS011;36026;45.478;9.224;2023-04-01T00:05:43;7.47;;;4.20;;
50128;SDS011;36026;45.478;9.224;2023-04-01T00:08:46;5.70;;;4.15;;
50128;SDS011;36026;45.478;9.224;2023-04-01T00:11:48;6.45;;;4.50;;
50128;SDS011;36026;45.478;9.224;2023-04-01T00:14:50;8.48;;;5.40;;
50128;SDS011;36026;45.478;9.224;2023-04-01T00:17:52;7.22;;;5.00;;
50128;SDS011;36026;45.478;9.224;2023-04-01T00:20:55;8.10;;;5.20;;
50128;SDS011;36026;45.478;9.224;2023-04-01T00:23:58;9.95;;;5.25;;
50128;SDS011;36026;45.478;9.224;2023-04-01T00:27:00;7.33;;;5.30;;
50128;SDS011;36026;45.478;9.224;2023-04-01T00:30:02;9.75;;;6.10;;
50128;SDS011;36026;45.478;9.224;2023-04-01T00:33:04;9.35;;;6.25;;
50128;SDS011;36026;45.478;9.224;2023-04-01T00:36:07;8.85;;;6.00;;
50128;SDS011;36026;45.478;9.224;2023-04-01T00:39:12;10.80;;;5.45;;
50128;SDS011;36026;45.478;9.224;2023-04-01T00:42:14;9.83;;;5.40;;
50128;SDS011;36026;45.478;9.224;2023-04-01T00:45:26;6.90;;;4.78;;
50128;SDS011;36026;45.478;9.224;2023-04-01T00:48:31;9.18;;;5.25;;
50128;SDS011;36026;45.478;9.224;2023-04-01T00:51:34;7.25;;;4.85;;
50128;SDS011;36026;45.478;9.224;2023-04-01T00:54:39;6.83;;;4.93;;
50128;SDS011;36026;45.478;9.224;2023-04-01T00:57:43;7.40;;;4.80;;
50128;SDS011;36026;45.478;9.224;2023-04-01T01:00:45;7.05;;;4.53;;
50128;SDS011;36026;45.478;9.224;2023-04-01T01:03:49;8.50;;;4.88;;
50128;SDS011;36026;45.478;9.224;2023-04-01T01:06:52;10.48;;;5.45;;
50128;SDS011;36026;45.478;9.224;2023-04-01T01:10:02;9.02;;;4.93;;
50128;SDS011;36026;45.478;9.224;2023-04-01T01:13:08;7.47;;;4.75;;
50128;SDS011;36026;45.478;9.224;2023-04-01T01:16:13;8.68;;;4.90;;
50128;SDS011;36026;45.478;9.224;2023-04-01T01:19:24;7.20;;;4.97;;
50128;SDS011;36026;45.478;9.224;2023-04-01T01:22:41;7.68;;;5.82;;
50128;SDS011;36026;45.478;9.224;2023-04-01T01:25:56;7.47;;;4.85;;
50128;SDS011;36026;45.478;9.224;2023-04-01T01:29:01;10.38;;;5.25;;
50128;SDS011;36026;45.478;9.224;2023-04-01T01:32:14;9.23;;;5.43;;
50128;SDS011;36026;45.478;9.224;2023-04-01T01:35:22;7.35;;;5.28;;
50128;SDS011;36026;45.478;9.224;2023-04-01T01:38:27;8.80;;;5.65;;
50128;SDS011;36026;45.478;9.224;2023-04-01T01:41:34;9.13;;;6.57;;
50128;SDS011;36026;45.478;9.224;2023-04-01T01:44:36;8.77;;;6.38;;
50128;SDS011;36026;45.478;9.224;2023-04-01T01:47:39;10.27;;;6.88;;
50128;SDS011;36026;45.478;9.224;2023-04-01T01:50:43;9.30;;;6.32;;
50128;SDS011;36026;45.478;9.224;2023-04-01T01:53:46;10.15;;;7.03;;
50128;SDS011;36026;45.478;9.224;2023-04-01T01:56:48;9.27;;;7.10;;
50128;SDS011;36026;45.478;9.224;2023-04-01T01:59:52;7.88;;;6.38;;
50128;SDS011;36026;45.478;9.224;2023-04-01T02:02:57;9.40;;;6.43;;
50128;SDS011;36026;45.478;9.224;2023-04-01T02:06:01;8.40;;;6.80;;
50128;SDS011;36026;45.478;9.224;2023-04-01T02:09:05;6.97;;;5.35;;
50128;SDS011;36026;45.478;9.224;2023-04-01T02:12:08;8.82;;;6.00;;
50128;SDS011;36026;45.478;9.224;2023-04-01T02:15:15;8.27;;;5.63;;
50128;SDS011;36026;45.478;9.224;2023-04-01T02:18:29;7.80;;;4.60;;
50128;SDS011;36026;45.478;9.224;2023-04-01T02:21:35;6.68;;;4.97;;
50128;SDS011;36026;45.478;9.224;2023-04-01T02:24:38;7.78;;;4.57;;
50128;SDS011;36026;45.478;9.224;2023-04-01T02:27:43;8.25;;;5.18;;
50128;SDS011;36026;45.478;9.224;2023-04-01T02:30:46;5.45;;;4.38;;
50128;SDS011;36026;45.478;9.224;2023-04-01T02:33:48;6.82;;;4.93;;
50128;SDS011;36026;45.478;9.224;2023-04-01T02:36:51;5.18;;;4.60;;
50128;SDS011;36026;45.478;9.224;2023-04-01T02:39:54;7.57;;;4.82;;
50128;SDS011;36026;45.478;9.224;2023-04-01T02:43:00;8.02;;;4.80;;
50128;SDS011;36026;45.478;9.224;2023-04-01T02:46:05;7.63;;;5.10;;
50128;SDS011;36026;45.478;9.224;2023-04-01T02:49:07;7.72;;;4.60;;
50128;SDS011;36026;45.478;9.224;2023-04-01T02:52:10;5.82;;;4.75;;
50128;SDS011;36026;45.478;9.224;2023-04-01T02:55:13;6.22;;;4.50;;
50128;SDS011;36026;45.478;9.224;2023-04-01T02:58:21;7.38;;;4.82;;
50128;SDS011;36026;45.478;9.224;2023-04-01T03:01:23;6.35;;;4.72;;
50128;SDS011;36026;45.478;9.224;2023-04-01T03:04:34;7.82;;;5.07;;
50128;SDS011;36026;45.478;9.224;2023-04-01T03:07:37;6.78;;;4.85;;
50128;SDS011;36026;45.478;9.224;2023-04-01T03:10:39;6.88;;;4.57;;
50128;SDS011;36026;45.478;9.224;2023-04-01T03:13:41;6.35;;;4.68;;
50128;SDS011;36026;45.478;9.224;2023-04-01T03:16:42;5.78;;;4.55;;
50128;SDS011;36026;45.478;9.224;2023-04-01T03:19:44;6.95;;;4.90;;
50128;SDS011;36026;45.478;9.224;2023-04-01T03:22:47;6.20;;;4.63;;
50128;SDS011;36026;45.478;9.224;2023-04-01T03:25:49;9.15;;;5.25;;
50128;SDS011;36026;45.478;9.224;2023-04-01T03:28:52;7.82;;;5.18;;
50128;SDS011;36026;45.478;9.224;2023-04-01T03:31:57;7.68;;;4.72;;
50128;SDS011;36026;45.478;9.224;2023-04-01T03:34:59;9.73;;;5.18;;
50128;SDS011;36026;45.478;9.224;2023-04-01T03:38:02;7.53;;;5.25;;
50128;SDS011;36026;45.478;9.224;2023-04-01T03:41:04;7.65;;;4.22;;
50128;SDS011;36026;45.478;9.224;2023-04-01T03:44:06;9.73;;;4.57;;
50128;SDS011;36026;45.478;9.224;2023-04-01T03:47:07;8.05;;;4.20;;
50128;SDS011;36026;45.478;9.224;2023-04-01T03:50:10;6.97;;;4.28;;
50128;SDS011;36026;45.478;9.224;2023-04-01T03:53:13;6.47;;;3.95;;
50128;SDS011;36026;45.478;9.224;2023-04-01T03:56:15;5.15;;;3.90;;
50128;SDS011;36026;45.478;9.224;2023-04-01T03:59:17;4.78;;;3.75;;
50128;SDS011;36026;45.478;9.224;2023-04-01T04:02:19;6.32;;;3.67;;
50128;SDS011;36026;45.478;9.224;2023-04-01T04:05:20;6.03;;;3.63;;
50128;SDS011;36026;45.478;9.224;2023-04-01T04:08:24;5.22;;;3.47;;
50128;SDS011;36026;45.478;9.224;2023-04-01T04:11:25;5.20;;;3.50;;
50128;SDS011;36026;45.478;9.224;2023-04-01T04:14:27;4.57;;;3.33;;
50128;SDS011;36026;45.478;9.224;2023-04-01T04:17:29;6.45;;;3.22;;
50128;SDS011;36026;45.478;9.224;2023-04-01T04:20:31;5.32;;;3.17;;
50128;SDS011;36026;45.478;9.224;2023-04-01T04:23:34;4.85;;;3.45;;
50128;SDS011;36026;45.478;9.224;2023-04-01T04:29:38;6.78;;;3.17;;
50128;SDS011;36026;45.478;9.224;2023-04-01T04:32:41;3.90;;;2.80;;
50128;SDS011;36026;45.478;9.224;2023-04-01T04:35:43;4.82;;;2.92;;
50128;SDS011;36026;45.478;9.224;2023-04-01T04:38:46;5.13;;;3.00;;
50128;SDS011;36026;45.478;9.224;2023-04-01T04:41:48;4.20;;;2.75;;
50128;SDS011;36026;45.478;9.224;2023-04-01T04:44:49;4.65;;;2.45;;
50128;SDS011;36026;45.478;9.224;2023-04-01T04:47:51;3.92;;;2.47;;
50128;SDS011;36026;45.478;9.224;2023-04-01T04:50:53;3.90;;;2.38;;
50128;SDS011;36026;45.478;9.224;2023-04-01T04:53:56;4.78;;;2.65;;
50128;SDS011;36026;45.478;9.224;2023-04-01T04:57:04;4.72;;;2.58;;
50128;SDS011;36026;45.478;9.224;2023-04-01T05:00:06;3.65;;;2.67;;
50128;SDS011;36026;45.478;9.224;2023-04-01T05:03:10;4.45;;;2.80;;
50128;SDS011;36026;45.478;9.224;2023-04-01T05:06:12;2.90;;;2.35;;
50128;SDS011;36026;45.478;9.224;2023-04-01T05:09:17;5.50;;;2.63;;
50128;SDS011;36026;45.478;9.224;2023-04-01T05:12:18;4.87;;;2.50;;
50128;SDS011;36026;45.478;9.224;2023-04-01T05:15:20;7.65;;;2.42;;
50128;SDS011;36026;45.478;9.224;2023-04-01T05:18:22;4.75;;;2.90;;
50128;SDS011;36026;45.478;9.224;2023-04-01T05:21:24;7.78;;;2.60;;
50128;SDS011;36026;45.478;9.224;2023-04-01T05:24:27;5.53;;;2.85;;
50128;SDS011;36026;45.478;9.224;2023-04-01T05:27:29;4.50;;;2.80;;
50128;SDS011;36026;45.478;9.224;2023-04-01T05:30:31;4.43;;;2.53;;
50128;SDS011;36026;45.478;9.224;2023-04-01T05:33:33;6.03;;;2.95;;
50128;SDS011;36026;45.478;9.224;2023-04-01T05:36:36;53.75;;;11.00;;
50128;SDS011;36026;45.478;9.224;2023-04-01T05:39:39;33.70;;;7.50;;
50128;SDS011;36026;45.478;9.224;2023-04-01T05:42:44;15.55;;;4.13;;
50128;SDS011;36026;45.478;9.224;2023-04-01T05:45:46;10.93;;;4.82;;
50128;SDS011;36026;45.478;9.224;2023-04-01T05:48:50;10.43;;;3.30;;
50128;SDS011;36026;45.478;9.224;2023-04-01T05:52:11;3.85;;;2.67;;
50128;SDS011;36026;45.478;9.224;2023-04-01T05:55:15;3.17;;;2.50;;
50128;SDS011;36026;45.478;9.224;2023-04-01T05:58:16;5.43;;;2.50;;
50128;SDS011;36026;45.478;9.224;2023-04-01T06:01:18;3.97;;;2.63;;
50128;SDS011;36026;45.478;9.224;2023-04-01T06:04:20;6.90;;;2.97;;
50128;SDS011;36026;45.478;9.224;2023-04-01T06:07:26;5.65;;;2.40;;
50128;SDS011;36026;45.478;9.224;2023-04-01T06:10:36;6.75;;;2.70;;
50128;SDS011;36026;45.478;9.224;2023-04-01T06:13:48;6.20;;;2.40;;
50128;SDS011;36026;45.478;9.224;2023-04-01T06:17:03;3.08;;;2.35;;
50128;SDS011;36026;45.478;9.224;2023-04-01T06:23:20;5.00;;;2.88;;
50128;SDS011;36026;45.478;9.224;2023-04-01T06:26:30;4.32;;;2.47;;
50128;SDS011;36026;45.478;9.224;2023-04-01T06:29:42;4.85;;;2.47;;
50128;SDS011;36026;45.478;9.224;2023-04-01T06:32:52;4.53;;;2.47;;
50128;SDS011;36026;45.478;9.224;2023-04-01T06:36:08;5.72;;;2.83;;
50128;SDS011;36026;45.478;9.224;2023-04-01T06:43:23;5.45;;;2.08;;
50128;SDS011;36026;45.478;9.224;2023-04-01T06:46:29;4.95;;;2.80;;
50128;SDS011;36026;45.478;9.224;2023-04-01T06:49:41;6.35;;;2.45;;
50128;SDS011;36026;45.478;9.224;2023-04-01T06:52:50;4.78;;;2.38;;
50128;SDS011;36026;45.478;9.224;2023-04-01T06:55:59;2.88;;;2.17;;
50128;SDS011;36026;45.478;9.224;2023-04-01T06:59:04;4.72;;;2.30;;
50128;SDS011;36026;45.478;9.224;2023-04-01T07:02:11;6.20;;;2.15;;
50128;SDS011;36026;45.478;9.224;2023-04-01T07:05:20;3.20;;;2.30;;
50128;SDS011;36026;45.478;9.224;2023-04-01T07:08:23;8.15;;;2.50;;
50128;SDS011;36026;45.478;9.224;2023-04-01T07:11:28;3.88;;;2.28;;
50128;SDS011;36026;45.478;9.224;2023-04-01T07:14:34;3.45;;;2.10;;
50128;SDS011;36026;45.478;9.224;2023-04-01T07:17:37;4.78;;;2.40;;
50128;SDS011;36026;45.478;9.224;2023-04-01T07:20:40;4.63;;;2.35;;
50128;SDS011;36026;45.478;9.224;2023-04-01T07:23:42;4.18;;;1.95;;
50128;SDS011;36026;45.478;9.224;2023-04-01T07:26:46;4.40;;;1.80;;
50128;SDS011;36026;45.478;9.224;2023-04-01T07:29:50;4.03;;;1.55;;
50128;SDS011;36026;45.478;9.224;2023-04-01T07:32:53;5.15;;;2.20;;
50128;SDS011;36026;45.478;9.224;2023-04-01T07:36:00;3.35;;;1.98;;
50128;SDS011;36026;45.478;9.224;2023-04-01T07:39:06;2.33;;;1.80;;
50128;SDS011;36026;45.478;9.224;2023-04-01T07:42:16;2.75;;;1.75;;
50128;SDS011;36026;45.478;9.224;2023-04-01T07:45:27;2.17;;;1.63;;
50128;SDS011;36026;45.478;9.224;2023-04-01T07:48:34;3.53;;;1.95;;
50128;SDS011;36026;45.478;9.224;2023-04-01T07:51:40;4.38;;;2.00;;
50128;SDS011;36026;45.478;9.224;2023-04-01T07:54:49;3.80;;;1.73;;
50128;SDS011;36026;45.478;9.224;2023-04-01T07:57:53;4.95;;;1.77;;
50128;SDS011;36026;45.478;9.224;2023-04-01T08:01:02;5.60;;;1.88;;
50128;SDS011;36026;45.478;9.224;2023-04-01T08:07:30;4.57;;;1.30;;
50128;SDS011;36026;45.478;9.224;2023-04-01T08:10:39;4.05;;;1.80;;
50128;SDS011;36026;45.478;9.224;2023-04-01T08:13:44;2.30;;;1.25;;
50128;SDS011;36026;45.478;9.224;2023-04-01T08:16:51;3.80;;;1.27;;
50128;SDS011;36026;45.478;9.224;2023-04-01T08:20:08;2.20;;;1.70;;
50128;SDS011;36026;45.478;9.224;2023-04-01T08:23:16;2.63;;;1.90;;
50128;SDS011;36026;45.478;9.224;2023-04-01T08:26:33;6.10;;;2.15;;
50128;SDS011;36026;45.478;9.224;2023-04-01T08:29:55;3.05;;;1.52;;
50128;SDS011;36026;45.478;9.224;2023-04-01T08:33:10;3.75;;;1.83;;
50128;SDS011;36026;45.478;9.224;2023-04-01T08:36:19;3.20;;;1.80;;
50128;SDS011;36026;45.478;9.224;2023-04-01T08:39:31;3.25;;;1.70;;
50128;SDS011;36026;45.478;9.224;2023-04-01T08:46:13;2.60;;;1.60;;
50128;SDS011;36026;45.478;9.224;2023-04-01T08:49:49;4.28;;;1.50;;
50128;SDS011;36026;45.478;9.224;2023-04-01T08:53:17;4.63;;;1.27;;
50128;SDS011;36026;45.478;9.224;2023-04-01T08:56:31;1.95;;;1.13;;
50128;SDS011;36026;45.478;9.224;2023-04-01T09:00:16;2.38;;;1.05;;
50128;SDS011;36026;45.478;9.224;2023-04-01T09:03:42;2.45;;;1.40;;
50128;SDS011;36026;45.478;9.224;2023-04-01T09:06:54;3.53;;;1.70;;
50128;SDS011;36026;45.478;9.224;2023-04-01T09:13:55;3.30;;;1.80;;
50128;SDS011;36026;45.478;9.224;2023-04-01T09:17:46;3.47;;;1.83;;
50128;SDS011;36026;45.478;9.224;2023-04-01T09:21:28;3.38;;;1.70;;
50128;SDS011;36026;45.478;9.224;2023-04-01T09:28:37;5.55;;;2.00;;
50128;SDS011;36026;45.478;9.224;2023-04-01T09:31:57;3.20;;;2.40;;
50128;SDS011;36026;45.478;9.224;2023-04-01T09:35:22;4.75;;;1.98;;
50128;SDS011;36026;45.478;9.224;2023-04-01T09:38:39;4.25;;;1.80;;
50128;SDS011;36026;45.478;9.224;2023-04-01T09:41:52;4.63;;;1.42;;
50128;SDS011;36026;45.478;9.224;2023-04-01T09:45:32;3.85;;;1.45;;
50128;SDS011;36026;45.478;9.224;2023-04-01T09:52:31;3.67;;;1.30;;
50128;SDS011;36026;45.478;9.224;2023-04-01T09:59:47;3.80;;;1.85;;
50128;SDS011;36026;45.478;9.224;2023-04-01T10:03:13;2.70;;;1.38;;
50128;SDS011;36026;45.478;9.224;2023-04-01T10:06:56;2.25;;;1.42;;
50128;SDS011;36026;45.478;9.224;2023-04-01T10:13:49;3.80;;;2.00;;
50128;SDS011;36026;45.478;9.224;2023-04-01T10:20:48;5.43;;;1.92;;
50128;SDS011;36026;45.478;9.224;2023-04-01T10:27:31;2.75;;;1.50;;
50128;SDS011;36026;45.478;9.224;2023-04-01T10:34:05;2.75;;;0.93;;
50128;SDS011;36026;45.478;9.224;2023-04-01T10:37:30;1.50;;;1.10;;
50128;SDS011;36026;45.478;9.224;2023-04-01T10:40:48;4.65;;;2.20;;
50128;SDS011;36026;45.478;9.224;2023-04-01T10:54:57;4.38;;;1.48;;
50128;SDS011;36026;45.478;9.224;2023-04-01T10:58:28;1.65;;;1.20;;
50128;SDS011;36026;45.478;9.224;2023-04-01T11:02:00;4.60;;;1.45;;
50128;SDS011;36026;45.478;9.224;2023-04-01T11:13:17;1.45;;;0.80;;
50128;SDS011;36026;45.478;9.224;2023-04-01T11:16:39;2.22;;;1.00;;
50128;SDS011;36026;45.478;9.224;2023-04-01T11:20:19;7.07;;;2.08;;
50128;SDS011;36026;45.478;9.224;2023-04-01T11:27:05;1.25;;;0.70;;
50128;SDS011;36026;45.478;9.224;2023-04-01T11:30:21;4.00;;;0.88;;
50128;SDS011;36026;45.478;9.224;2023-04-01T11:33:30;1.30;;;0.65;;
50128;SDS011;36026;45.478;9.224;2023-04-01T11:36:37;1.48;;;0.47;;
50128;SDS011;36026;45.478;9.224;2023-04-01T11:39:46;0.90;;;0.63;;
50128;SDS011;36026;45.478;9.224;2023-04-01T11:43:01;1.92;;;1.13;;
50128;SDS011;36026;45.478;9.224;2023-04-01T11:46:12;2.45;;;0.82;;
50128;SDS011;36026;45.478;9.224;2023-04-01T11:49:22;0.80;;;0.60;;
50128;SDS011;36026;45.478;9.224;2023-04-01T11:52:34;2.60;;;0.80;;
50128;SDS011;36026;45.478;9.224;2023-04-01T11:55:53;1.40;;;0.77;;
50128;SDS011;36026;45.478;9.224;2023-04-01T12:02:44;4.47;;;0.60;;
50128;SDS011;36026;45.478;9.224;2023-04-01T12:05:58;3.00;;;0.55;;
50128;SDS011;36026;45.478;9.224;2023-04-01T12:09:04;3.92;;;0.60;;
50128;SDS011;36026;45.478;9.224;2023-04-01T12:12:16;2.55;;;0.63;;
50128;SDS011;36026;45.478;9.224;2023-04-01T12:15:22;0.43;;;0.40;;
50128;SDS011;36026;45.478;9.224;2023-04-01T12:18:33;2.83;;;0.80;;
50128;SDS011;36026;45.478;9.224;2023-04-01T12:21:38;2.58;;;0.40;;
50128;SDS011;36026;45.478;9.224;2023-04-01T12:24:45;1.55;;;0.45;;
50128;SDS011;36026;45.478;9.224;2023-04-01T12:27:59;3.33;;;0.70;;
50128;SDS011;36026;45.478;9.224;2023-04-01T12:31:06;0.65;;;0.50;;
50128;SDS011;36026;45.478;9.224;2023-04-01T12:38:02;1.35;;;0.50;;
50128;SDS011;36026;45.478;9.224;2023-04-01T12:41:09;2.47;;;0.30;;
50128;SDS011;36026;45.478;9.224;2023-04-01T12:44:19;0.60;;;0.45;;
50128;SDS011;36026;45.478;9.224;2023-04-01T12:47:42;1.05;;;0.32;;
50128;SDS011;36026;45.478;9.224;2023-04-01T12:51:21;0.73;;;0.40;;
50128;SDS011;36026;45.478;9.224;2023-04-01T12:54:38;0.52;;;0.30;;
50128;SDS011;36026;45.478;9.224;2023-04-01T12:57:57;0.52;;;0.40;;
50128;SDS011;36026;45.478;9.224;2023-04-01T13:01:27;2.05;;;0.40;;
50128;SDS011;36026;45.478;9.224;2023-04-01T13:04:39;0.43;;;0.30;;
50128;SDS011;36026;45.478;9.224;2023-04-01T13:08:09;1.63;;;0.60;;
50128;SDS011;36026;45.478;9.224;2023-04-01T13:11:24;0.30;;;0.20;;
50128;SDS011;36026;45.478;9.224;2023-04-01T13:14:36;0.68;;;0.30;;
50128;SDS011;36026;45.478;9.224;2023-04-01T13:17:53;0.28;;;0.25;;
50128;SDS011;36026;45.478;9.224;2023-04-01T13:21:03;0.20;;;0.20;;
50128;SDS011;36026;45.478;9.224;2023-04-01T13:24:11;0.30;;;0.30;;
50128;SDS011;36026;45.478;9.224;2023-04-01T13:27:20;1.05;;;0.28;;
50128;SDS011;36026;45.478;9.224;2023-04-01T13:30:26;0.30;;;0.30;;
50128;SDS011;36026;45.478;9.224;2023-04-01T13:33:34;0.40;;;0.30;;
50128;SDS011;36026;45.478;9.224;2023-04-01T13:36:41;0.45;;;0.40;;
50128;SDS011;36026;45.478;9.224;2023-04-01T13:39:57;0.30;;;0.30;;
50128;SDS011;36026;45.478;9.224;2023-04-01T13:43:08;3.35;;;0.52;;
50128;SDS011;36026;45.478;9.224;2023-04-01T13:46:22;0.47;;;0.30;;
50128;SDS011;36026;45.478;9.224;2023-04-01T13:49:58;1.60;;;0.30;;
50128;SDS011;36026;45.478;9.224;2023-04-01T13:53:30;5.35;;;0.50;;
50128;SDS011;36026;45.478;9.224;2023-04-01T13:56:50;2.30;;;0.50;;
50128;SDS011;36026;45.478;9.224;2023-04-01T13:59:59;3.92;;;0.40;;
50128;SDS011;36026;45.478;9.224;2023-04-01T14:03:32;2.08;;;0.30;;
50128;SDS011;36026;45.478;9.224;2023-04-01T14:09:56;2.17;;;1.17;;
50128;SDS011;36026;45.478;9.224;2023-04-01T14:13:07;0.75;;;0.40;;
50128;SDS011;36026;45.478;9.224;2023-04-01T14:16:20;0.30;;;0.30;;
50128;SDS011;36026;45.478;9.224;2023-04-01T14:23:30;1.33;;;0.50;;
50128;SDS011;36026;45.478;9.224;2023-04-01T14:30:27;0.88;;;0.43;;
50128;SDS011;36026;45.478;9.224;2023-04-01T14:33:37;0.40;;;0.30;;
50128;SDS011;36026;45.478;9.224;2023-04-01T14:36:53;1.98;;;0.40;;
50128;SDS011;36026;45.478;9.224;2023-04-01T14:40:14;1.02;;;0.35;;
50128;SDS011;36026;45.478;9.224;2023-04-01T14:43:42;1.02;;;0.30;;
50128;SDS011;36026;45.478;9.224;2023-04-01T14:47:06;0.50;;;0.30;;
50128;SDS011;36026;45.478;9.224;2023-04-01T14:50:17;0.47;;;0.30;;
50128;SDS011;36026;45.478;9.224;2023-04-01T14:53:24;2.28;;;0.30;;
50128;SDS011;36026;45.478;9.224;2023-04-01T14:56:35;17.85;;;1.50;;
50128;SDS011;36026;45.478;9.224;2023-04-01T14:59:39;4.22;;;0.28;;
50128;SDS011;36026;45.478;9.224;2023-04-01T15:02:47;0.70;;;0.30;;
50128;SDS011;36026;45.478;9.224;2023-04-01T15:05:55;2.25;;;0.30;;
50128;SDS011;36026;45.478;9.224;2023-04-01T15:09:03;0.43;;;0.28;;
50128;SDS011;36026;45.478;9.224;2023-04-01T15:12:11;2.17;;;0.30;;
50128;SDS011;36026;45.478;9.224;2023-04-01T15:15:22;1.75;;;0.20;;
50128;SDS011;36026;45.478;9.224;2023-04-01T15:18:34;1.15;;;0.30;;
50128;SDS011;36026;45.478;9.224;2023-04-01T15:21:56;0.50;;;0.30;;
50128;SDS011;36026;45.478;9.224;2023-04-01T15:28:43;15.98;;;1.30;;
50128;SDS011;36026;45.478;9.224;2023-04-01T15:31:52;2.08;;;0.43;;
50128;SDS011;36026;45.478;9.224;2023-04-01T15:35:00;1.10;;;0.40;;
50128;SDS011;36026;45.478;9.224;2023-04-01T15:38:05;4.82;;;0.82;;
50128;SDS011;36026;45.478;9.224;2023-04-01T15:41:11;2.67;;;0.63;;
50128;SDS011;36026;45.478;9.224;2023-04-01T15:44:26;5.90;;;0.85;;
50128;SDS011;36026;45.478;9.224;2023-04-01T15:47:58;1.02;;;0.32;;
50128;SDS011;36026;45.478;9.224;2023-04-01T15:51:09;3.22;;;0.57;;
50128;SDS011;36026;45.478;9.224;2023-04-01T15:54:27;6.82;;;0.90;;
50128;SDS011;36026;45.478;9.224;2023-04-01T15:57:36;25.10;;;1.50;;
50128;SDS011;36026;45.478;9.224;2023-04-01T16:00:44;4.25;;;0.55;;
50128;SDS011;36026;45.478;9.224;2023-04-01T16:03:50;4.90;;;0.77;;
50128;SDS011;36026;45.478;9.224;2023-04-01T16:07:02;3.55;;;0.57;;
50128;SDS011;36026;45.478;9.224;2023-04-01T16:10:16;12.38;;;1.10;;
50128;SDS011;36026;45.478;9.224;2023-04-01T16:13:24;1.43;;;0.50;;
50128;SDS011;36026;45.478;9.224;2023-04-01T16:16:36;2.35;;;0.30;;
50128;SDS011;36026;45.478;9.224;2023-04-01T16:19:48;1.02;;;0.40;;
50128;SDS011;36026;45.478;9.224;2023-04-01T16:22:55;0.80;;;0.38;;
50128;SDS011;36026;45.478;9.224;2023-04-01T16:26:02;1.33;;;0.50;;
50128;SDS011;36026;45.478;9.224;2023-04-01T16:29:08;0.88;;;0.40;;
50128;SDS011;36026;45.478;9.224;2023-04-01T16:32:18;19.15;;;1.60;;
50128;SDS011;36026;45.478;9.224;2023-04-01T16:35:28;10.65;;;1.05;;
50128;SDS011;36026;45.478;9.224;2023-04-01T16:38:36;2.13;;;1.05;;
50128;SDS011;36026;45.478;9.224;2023-04-01T16:41:41;3.80;;;0.47;;
50128;SDS011;36026;45.478;9.224;2023-04-01T16:44:50;16.42;;;1.92;;
50128;SDS011;36026;45.478;9.224;2023-04-01T16:47:54;6.45;;;1.50;;
50128;SDS011;36026;45.478;9.224;2023-04-01T16:50:58;8.00;;;1.30;;
50128;SDS011;36026;45.478;9.224;2023-04-01T16:54:04;15.85;;;1.33;;
50128;SDS011;36026;45.478;9.224;2023-04-01T16:57:13;2.58;;;0.60;;
50128;SDS011;36026;45.478;9.224;2023-04-01T17:00:23;8.55;;;1.17;;
50128;SDS011;36026;45.478;9.224;2023-04-01T17:03:27;1.17;;;0.60;;
50128;SDS011;36026;45.478;9.224;2023-04-01T17:06:34;1.13;;;0.70;;
50128;SDS011;36026;45.478;9.224;2023-04-01T17:09:46;1.42;;;0.40;;
50128;SDS011;36026;45.478;9.224;2023-04-01T17:12:55;1.80;;;0.60;;
50128;SDS011;36026;45.478;9.224;2023-04-01T17:16:13;0.80;;;0.52;;
50128;SDS011;36026;45.478;9.224;2023-04-01T17:19:42;2.65;;;0.80;;
50128;SDS011;36026;45.478;9.224;2023-04-01T17:22:49;2.03;;;0.73;;
50128;SDS011;36026;45.478;9.224;2023-04-01T17:25:59;0.98;;;0.70;;
50128;SDS011;36026;45.478;9.224;2023-04-01T17:29:11;7.57;;;1.00;;
50128;SDS011;36026;45.478;9.224;2023-04-01T17:32:25;1.50;;;0.88;;
50128;SDS011;36026;45.478;9.224;2023-04-01T17:35:41;1.42;;;0.70;;
50128;SDS011;36026;45.478;9.224;2023-04-01T17:38:57;1.20;;;0.50;;
50128;SDS011;36026;45.478;9.224;2023-04-01T17:42:07;2.00;;;0.70;;
50128;SDS011;36026;45.478;9.224;2023-04-01T17:45:16;1.63;;;0.77;;
50128;SDS011;36026;45.478;9.224;2023-04-01T17:48:24;8.40;;;2.58;;
50128;SDS011;36026;45.478;9.224;2023-04-01T17:51:35;12.55;;;3.10;;
50128;SDS011;36026;45.478;9.224;2023-04-01T17:54:41;3.67;;;1.63;;
50128;SDS011;36026;45.478;9.224;2023-04-01T17:57:50;10.75;;;2.58;;
50128;SDS011;36026;45.478;9.224;2023-04-01T18:01:01;5.20;;;2.55;;
50128;SDS011;36026;45.478;9.224;2023-04-01T18:04:15;3.97;;;1.70;;
50128;SDS011;36026;45.478;9.224;2023-04-01T18:18:02;4.57;;;1.70;;
50128;SDS011;36026;45.478;9.224;2023-04-01T18:21:12;3.92;;;1.60;;
50128;SDS011;36026;45.478;9.224;2023-04-01T18:24:21;5.72;;;2.03;;
50128;SDS011;36026;45.478;9.224;2023-04-01T18:27:29;5.25;;;1.70;;
50128;SDS011;36026;45.478;9.224;2023-04-01T18:30:32;3.72;;;1.50;;
50128;SDS011;36026;45.478;9.224;2023-04-01T18:33:40;8.38;;;1.80;;
50128;SDS011;36026;45.478;9.224;2023-04-01T18:36:47;4.63;;;1.60;;
50128;SDS011;36026;45.478;9.224;2023-04-01T18:39:52;4.75;;;1.83;;
50128;SDS011;36026;45.478;9.224;2023-04-01T18:42:58;4.63;;;1.73;;
50128;SDS011;36026;45.478;9.224;2023-04-01T18:46:05;4.85;;;2.13;;
50128;SDS011;36026;45.478;9.224;2023-04-01T18:49:14;7.93;;;2.92;;
50128;SDS011;36026;45.478;9.224;2023-04-01T18:52:20;5.63;;;2.55;;
50128;SDS011;36026;45.478;9.224;2023-04-01T18:55:29;4.22;;;2.67;;
50128;SDS011;36026;45.478;9.224;2023-04-01T18:58:33;3.60;;;2.00;;
50128;SDS011;36026;45.478;9.224;2023-04-01T19:01:37;3.75;;;2.28;;
50128;SDS011;36026;45.478;9.224;2023-04-01T19:04:44;3.60;;;1.77;;
50128;SDS011;36026;45.478;9.224;2023-04-01T19:07:52;5.43;;;2.50;;
50128;SDS011;36026;45.478;9.224;2023-04-01T19:10:58;4.60;;;2.67;;
50128;SDS011;36026;45.478;9.224;2023-04-01T19:14:08;4.07;;;2.05;;
50128;SDS011;36026;45.478;9.224;2023-04-01T19:17:16;6.78;;;3.00;;
50128;SDS011;36026;45.478;9.224;2023-04-01T19:20:29;6.32;;;2.80;;
50128;SDS011;36026;45.478;9.224;2023-04-01T19:23:54;5.28;;;2.58;;
50128;SDS011;36026;45.478;9.224;2023-04-01T19:27:08;7.00;;;2.40;;
50128;SDS011;36026;45.478;9.224;2023-04-01T19:30:27;3.60;;;2.22;;
50128;SDS011;36026;45.478;9.224;2023-04-01T19:33:44;8.65;;;3.15;;
50128;SDS011;36026;45.478;9.224;2023-04-01T19:37:10;4.88;;;2.15;;
50128;SDS011;36026;45.478;9.224;2023-04-01T19:40:37;3.97;;;2.25;;
50128;SDS011;36026;45.478;9.224;2023-04-01T19:47:41;9.15;;;2.92;;
50128;SDS011;36026;45.478;9.224;2023-04-01T19:54:34;9.07;;;2.50;;
50128;SDS011;36026;45.478;9.224;2023-04-01T19:57:46;5.25;;;2.30;;
50128;SDS011;36026;45.478;9.224;2023-04-01T20:01:11;7.13;;;2.58;;
50128;SDS011;36026;45.478;9.224;2023-04-01T20:04:19;6.53;;;2.85;;
50128;SDS011;36026;45.478;9.224;2023-04-01T20:11:11;12.88;;;4.38;;
50128;SDS011;36026;45.478;9.224;2023-04-01T20:14:43;13.82;;;4.50;;
50128;SDS011;36026;45.478;9.224;2023-04-01T20:19:51;9.40;;;4.85;;
50128;SDS011;36026;45.478;9.224;2023-04-01T20:33:50;4.85;;;3.00;;
50128;SDS011;36026;45.478;9.224;2023-04-01T20:37:33;7.00;;;3.05;;
50128;SDS011;36026;45.478;9.224;2023-04-01T20:41:02;4.20;;;2.67;;
50128;SDS011;36026;45.478;9.224;2023-04-01T20:53:02;7.25;;;2.53;;
50128;SDS011;36026;45.478;9.224;2023-04-01T21:04:26;7.65;;;3.40;;
50128;SDS011;36026;45.478;9.224;2023-04-01T21:11:43;6.93;;;2.88;;
50128;SDS011;36026;45.478;9.224;2023-04-01T21:18:30;5.57;;;2.90;;
50128;SDS011;36026;45.478;9.224;2023-04-01T21:26:00;6.40;;;2.95;;
50128;SDS011;36026;45.478;9.224;2023-04-01T21:33:03;6.57;;;3.20;;
50128;SDS011;36026;45.478;9.224;2023-04-01T21:40:23;5.97;;;2.95;;
50128;SDS011;36026;45.478;9.224;2023-04-01T21:57:57;3.13;;;1.83;;
50128;SDS011;36026;45.478;9.224;2023-04-01T22:05:27;3.20;;;1.40;;
50128;SDS011;36026;45.478;9.224;2023-04-01T22:08:35;2.70;;;1.55;;